Time;durP1;ratioP1;P1;durP2;ratioP2;P2;SDS_P1;SDS_P2;PMS_P1;PMS_P2;Temp;Humidity;BMP_temperature;BMP_pressure;BME280_temperature;BME280_humidity;BME280_pressure;Samples;Min_cycle;Max_cycle;Signal;HPM_P1;HPM_P2
2022/12/31 00:00:57;;;;;;;10.20;9.30;;;11.10;99.90;;;;;;4015138;29;20418;-86
2022/12/31 00:03:16;;;;;;;9.02;8.45;;;11.10;99.90;;;;;;4010023;29;20094;-86
2022/12/31 00:05:36;;;;;;;11.20;10.07;;;11.00;99.90;;;;;;4025534;29;20100;-86
2022/12/31 00:07:57;;;;;;;19.88;10.38;;;11.10;99.90;;;;;;4014404;29;20049;-86
2022/12/31 00:10:17;;;;;;;9.73;8.45;;;11.10;99.90;;;;;;4014632;29;20098;-86
2022/12/31 00:12:36;;;;;;;8.82;7.88;;;11.00;99.90;;;;;;4014247;29;20040;-86
2022/12/31 00:14:57;;;;;;;9.60;8.57;;;11.00;99.90;;;;;;4025980;29;20151;-86
2022/12/31 00:17:17;;;;;;;16.88;8.70;;;11.00;99.90;;;;;;4025146;29;20093;-86
2022/12/31 00:19:36;;;;;;;10.60;8.43;;;11.00;99.90;;;;;;4014471;29;20057;-86
2022/12/31 00:21:57;;;;;;;9.27;8.57;;;11.00;99.90;;;;;;4014508;29;20387;-84
2022/12/31 00:24:17;;;;;;;20.90;9.38;;;11.00;99.90;;;;;;4014255;29;20094;-83
2022/12/31 00:26:38;;;;;;;17.23;9.52;;;11.00;99.90;;;;;;4014354;29;20102;-84
2022/12/31 00:28:59;;;;;;;14.38;8.63;;;11.00;99.90;;;;;;4013610;29;20074;-83
2022/12/31 00:31:25;;;;;;;13.70;9.23;;;11.00;99.90;;;;;;4010927;29;20163;-83
2022/12/31 00:33:45;;;;;;;10.73;8.95;;;11.00;99.90;;;;;;4027574;29;20113;-83
2022/12/31 00:36:17;;;;;;;14.23;8.93;;;11.00;99.90;;;;;;4007756;29;20334;-83
2022/12/31 00:38:39;;;;;;;14.80;11.30;;;11.00;99.90;;;;;;4016396;29;20082;-83
2022/12/31 00:40:59;;;;;;;9.32;8.45;;;11.00;99.90;;;;;;4016676;29;20110;-84
2022/12/31 00:43:19;;;;;;;10.00;8.98;;;11.00;99.90;;;;;;4016476;29;20052;-83
2022/12/31 00:45:39;;;;;;;9.70;8.68;;;11.10;99.90;;;;;;4016559;29;20057;-83
2022/12/31 00:47:59;;;;;;;8.68;7.97;;;11.10;99.90;;;;;;4016717;29;20233;-83
2022/12/31 00:50:19;;;;;;;9.32;8.52;;;11.10;99.90;;;;;;4016844;29;20095;-83
2022/12/31 00:52:39;;;;;;;9.10;8.00;;;11.10;99.90;;;;;;4016632;29;20086;-83
2022/12/31 00:54:58;;;;;;;7.85;7.25;;;11.20;99.90;;;;;;4014913;29;20086;-84
2022/12/31 00:57:19;;;;;;;10.07;8.13;;;11.10;99.90;;;;;;4015723;29;20057;-84
2022/12/31 00:59:38;;;;;;;8.13;7.10;;;11.10;99.90;;;;;;4016600;29;20060;-83
2022/12/31 01:01:58;;;;;;;10.98;7.38;;;11.10;99.90;;;;;;4027105;29;20085;-84
2022/12/31 01:04:20;;;;;;;7.50;7.05;;;11.10;99.90;;;;;;4016791;29;20075;-84
2022/12/31 01:06:41;;;;;;;8.82;8.10;;;11.10;99.90;;;;;;4015242;29;20060;-83
2022/12/31 01:09:00;;;;;;;9.40;8.27;;;11.10;99.90;;;;;;4007504;29;20371;-83
2022/12/31 01:11:21;;;;;;;18.33;7.85;;;11.10;99.90;;;;;;4027684;29;20098;-83
2022/12/31 01:13:42;;;;;;;11.82;8.15;;;11.10;99.90;;;;;;4016195;29;20287;-83
2022/12/31 01:16:13;;;;;;;10.43;8.85;;;11.00;99.90;;;;;;4027890;29;20150;-83
2022/12/31 01:18:33;;;;;;;10.30;8.50;;;11.00;99.90;;;;;;4028519;29;20457;-83
2022/12/31 01:20:53;;;;;;;15.02;9.60;;;11.00;99.90;;;;;;4002572;29;20257;-83
2022/12/31 01:23:13;;;;;;;16.15;9.27;;;11.00;99.90;;;;;;4016488;29;20106;-83
2022/12/31 01:25:35;;;;;;;9.18;8.40;;;11.00;99.90;;;;;;4018232;29;20048;-83
2022/12/31 01:27:55;;;;;;;13.60;10.25;;;11.10;99.90;;;;;;4021414;29;20065;-83
2022/12/31 01:30:15;;;;;;;10.00;9.05;;;11.10;99.90;;;;;;4016009;29;20101;-83
2022/12/31 01:32:35;;;;;;;10.43;9.35;;;11.10;99.90;;;;;;4015123;29;20061;-83
2022/12/31 01:34:55;;;;;;;12.75;9.73;;;11.10;99.90;;;;;;4016465;29;20052;-83
2022/12/31 01:37:15;;;;;;;8.18;7.50;;;11.10;99.90;;;;;;4013013;29;20056;-83
2022/12/31 01:39:35;;;;;;;8.98;8.13;;;11.10;99.90;;;;;;4003624;29;20057;-83
2022/12/31 01:41:55;;;;;;;9.63;8.82;;;11.10;99.90;;;;;;4027879;29;20060;-83
2022/12/31 01:44:24;;;;;;;8.30;7.63;;;11.10;99.90;;;;;;4015431;29;20099;-83
2022/12/31 01:46:48;;;;;;;10.48;6.30;;;11.10;99.90;;;;;;4002750;29;20053;-83
2022/12/31 01:49:22;;;;;;;6.53;6.22;;;11.10;99.90;;;;;;4015979;29;20045;-83
2022/12/31 01:51:54;;;;;;;8.00;6.25;;;11.20;99.90;;;;;;4016190;29;20282;-83
2022/12/31 01:54:17;;;;;;;7.10;6.45;;;11.10;99.90;;;;;;4014911;29;20045;-83
2022/12/31 01:56:40;;;;;;;10.32;7.78;;;11.10;99.90;;;;;;4006878;29;20065;-83
2022/12/31 01:59:05;;;;;;;11.90;8.35;;;11.20;99.90;;;;;;4015156;29;20061;-83
2022/12/31 02:01:30;;;;;;;7.90;7.32;;;11.20;99.90;;;;;;4015705;29;20057;-83
2022/12/31 02:03:52;;;;;;;9.75;7.03;;;11.20;99.90;;;;;;4015172;29;20061;-83
2022/12/31 02:06:27;;;;;;;11.80;7.15;;;11.20;99.90;;;;;;4014973;29;20090;-83
2022/12/31 02:08:48;;;;;;;9.15;7.78;;;11.20;99.90;;;;;;4015180;29;20432;-84
2022/12/31 02:11:21;;;;;;;8.98;8.18;;;11.20;99.90;;;;;;4015842;29;20057;-84
2022/12/31 02:13:41;;;;;;;9.93;7.18;;;11.20;99.90;;;;;;4015494;29;20086;-83
2022/12/31 02:16:42;;;;;;;8.85;7.97;;;11.20;99.90;;;;;;4027976;29;20129;-83
2022/12/31 02:19:26;;;;;;;7.97;7.30;;;11.20;99.90;;;;;;3980507;29;20068;-83
2022/12/31 02:22:23;;;;;;;8.55;7.75;;;11.20;99.90;;;;;;4015156;29;20049;-83
2022/12/31 02:25:06;;;;;;;8.32;7.55;;;11.20;99.90;;;;;;3994028;29;20057;-83
2022/12/31 02:27:38;;;;;;;;;;;11.20;99.90;;;;;;4015993;29;20048;-83
2022/12/31 02:30:07;;;;;;;7.95;7.13;;;11.20;99.90;;;;;;4014715;29;19965;-83
2022/12/31 02:32:48;;;;;;;11.85;8.07;;;11.20;99.90;;;;;;4026240;29;20073;-83
2022/12/31 02:35:14;;;;;;;8.93;8.00;;;11.20;99.90;;;;;;4014915;29;20048;-83
2022/12/31 02:37:37;;;;;;;7.53;6.90;;;11.20;99.90;;;;;;4014962;29;20053;-83
2022/12/31 02:39:57;;;;;;;9.05;8.05;;;11.10;99.90;;;;;;4026228;29;20084;-83
2022/12/31 02:42:17;;;;;;;8.10;7.57;;;11.10;99.90;;;;;;4007536;29;20057;-83
2022/12/31 02:44:39;;;;;;;9.48;8.75;;;11.00;99.90;;;;;;4005808;29;20098;-83
2022/12/31 02:47:09;;;;;;;9.48;8.57;;;10.90;99.90;;;;;;4015491;29;20061;-83
2022/12/31 02:50:05;;;;;;;9.43;8.63;;;10.90;99.90;;;;;;4003668;29;20118;-83
2022/12/31 02:52:28;;;;;;;11.00;7.75;;;10.90;99.90;;;;;;3995730;29;20302;-83
2022/12/31 02:55:10;;;;;;;9.50;8.48;;;10.90;99.90;;;;;;4015121;29;20053;-83
2022/12/31 02:57:35;;;;;;;6.90;6.47;;;11.00;99.90;;;;;;4027139;29;20098;-83
2022/12/31 03:02:47;;;;;;;11.10;9.43;;;11.00;99.90;;;;;;4015443;29;20129;-83
2022/12/31 03:05:08;;;;;;;12.38;10.48;;;10.90;99.90;;;;;;4015911;29;20106;-83
2022/12/31 03:07:31;;;;;;;10.48;9.52;;;10.80;99.90;;;;;;4015267;29;20053;-83
2022/12/31 03:09:51;;;;;;;11.68;10.55;;;10.70;99.90;;;;;;4013857;29;20053;-83
2022/12/31 03:14:52;;;;;;;10.80;10.05;;;10.70;99.90;;;;;;4015272;29;20048;-83
2022/12/31 03:17:12;;;;;;;11.05;9.95;;;10.70;99.90;;;;;;4013744;29;20252;-83
2022/12/31 03:22:27;;;;;;;11.32;10.48;;;10.70;99.90;;;;;;4015000;29;20320;-83
2022/12/31 03:27:25;;;;;;;10.90;10.15;;;10.70;99.90;;;;;;4015073;29;20048;-83
2022/12/31 03:29:45;;;;;;;11.30;9.80;;;10.70;99.90;;;;;;4016931;29;20124;-83
2022/12/31 03:32:05;;;;;;;10.85;9.75;;;10.70;99.90;;;;;;4003115;29;20409;-84
2022/12/31 03:34:25;;;;;;;11.73;10.63;;;10.70;99.90;;;;;;4013156;29;20076;-83
2022/12/31 03:36:44;;;;;;;13.20;10.52;;;10.60;99.90;;;;;;4014917;29;20248;-83
2022/12/31 03:39:04;;;;;;;13.50;10.93;;;10.70;99.90;;;;;;4014852;29;20052;-83
2022/12/31 03:41:24;;;;;;;13.18;11.88;;;10.60;99.90;;;;;;4013035;29;20416;-83
2022/12/31 03:43:43;;;;;;;12.77;11.93;;;10.70;99.90;;;;;;4014855;29;20392;-83
2022/12/31 03:46:04;;;;;;;11.48;10.13;;;10.60;99.90;;;;;;4014260;29;20099;-83
2022/12/31 03:48:24;;;;;;;9.73;8.85;;;10.70;99.90;;;;;;4014735;29;20233;-83
2022/12/31 03:50:44;;;;;;;11.25;10.35;;;10.70;99.90;;;;;;4013308;29;20405;-83
2022/12/31 03:53:05;;;;;;;10.65;9.93;;;10.70;99.90;;;;;;4013528;29;20053;-84
2022/12/31 03:55:25;;;;;;;12.15;9.63;;;10.70;99.90;;;;;;4014563;29;20052;-83
2022/12/31 03:57:45;;;;;;;13.60;9.98;;;10.70;99.90;;;;;;4014073;29;20291;-83
2022/12/31 04:00:08;;;;;;;10.30;8.38;;;10.70;99.90;;;;;;4014592;29;20072;-83
2022/12/31 04:02:28;;;;;;;9.20;8.60;;;10.60;99.90;;;;;;4014702;29;20140;-83
2022/12/31 04:04:48;;;;;;;8.95;8.32;;;10.60;99.90;;;;;;4014307;29;20068;-83
2022/12/31 04:07:09;;;;;;;7.82;7.07;;;10.60;99.90;;;;;;4029463;29;20432;-83
2022/12/31 04:09:29;;;;;;;9.43;8.43;;;10.60;99.90;;;;;;4021575;29;20113;-83
2022/12/31 04:11:49;;;;;;;9.43;8.70;;;10.60;99.90;;;;;;4017248;29;20113;-83
2022/12/31 04:14:10;;;;;;;10.48;9.40;;;10.60;99.90;;;;;;4018549;29;20062;-84
2022/12/31 04:16:31;;;;;;;9.45;8.90;;;10.60;99.90;;;;;;4015222;29;20045;-83
2022/12/31 04:18:51;;;;;;;10.68;10.07;;;10.60;99.90;;;;;;4022398;29;20104;-83
2022/12/31 04:21:10;;;;;;;11.43;10.27;;;10.60;99.90;;;;;;4017345;29;20098;-83
2022/12/31 04:23:31;;;;;;;11.73;10.50;;;10.60;99.90;;;;;;4015580;29;20053;-83
2022/12/31 04:25:52;;;;;;;11.48;10.23;;;10.60;99.90;;;;;;4007210;29;20126;-83
2022/12/31 04:28:12;;;;;;;11.38;10.60;;;10.60;99.90;;;;;;4028785;29;20049;-83
2022/12/31 04:30:32;;;;;;;14.07;10.95;;;10.60;99.90;;;;;;4012171;29;20129;-83
2022/12/31 04:32:51;;;;;;;12.35;11.13;;;10.60;99.90;;;;;;4017048;29;20056;-83
2022/12/31 04:35:11;;;;;;;11.15;10.18;;;10.70;99.90;;;;;;4015400;29;20053;-84
2022/12/31 04:37:31;;;;;;;9.85;9.20;;;10.60;99.90;;;;;;4006619;29;20078;-83
2022/12/31 04:39:50;;;;;;;10.20;9.35;;;10.60;99.90;;;;;;4020553;29;20066;-83
2022/12/31 04:42:11;;;;;;;13.45;11.45;;;10.70;99.90;;;;;;4007706;29;20294;-83
2022/12/31 04:44:33;;;;;;;13.75;12.38;;;10.70;99.90;;;;;;4016460;29;20397;-83
2022/12/31 04:46:53;;;;;;;13.15;12.30;;;10.70;99.90;;;;;;4016775;29;20053;-83
2022/12/31 04:49:14;;;;;;;17.77;13.50;;;10.60;99.90;;;;;;4028529;29;20040;-83
2022/12/31 04:51:34;;;;;;;13.88;12.70;;;10.60;99.90;;;;;;4016897;29;20097;-83
2022/12/31 04:53:54;;;;;;;13.73;12.45;;;10.60;99.90;;;;;;4016926;29;20093;-83
2022/12/31 04:56:15;;;;;;;18.85;14.32;;;10.60;99.90;;;;;;4016738;29;20237;-84
2022/12/31 04:58:35;;;;;;;14.10;12.93;;;10.60;99.90;;;;;;4028237;29;20094;-83
2022/12/31 05:00:55;;;;;;;12.50;11.32;;;10.60;99.90;;;;;;4016132;29;20049;-83
2022/12/31 05:03:17;;;;;;;12.70;11.48;;;10.60;99.90;;;;;;4008643;29;20045;-84
2022/12/31 05:05:42;;;;;;;12.80;11.38;;;10.60;99.90;;;;;;4014511;29;20056;-84
2022/12/31 05:08:03;;;;;;;12.48;11.50;;;10.70;99.90;;;;;;4008559;29;20402;-83
2022/12/31 05:10:23;;;;;;;11.35;10.43;;;10.60;99.90;;;;;;4016608;29;20099;-83
2022/12/31 05:12:42;;;;;;;11.63;10.75;;;10.70;99.90;;;;;;4020153;29;20382;-83
2022/12/31 05:15:03;;;;;;;10.43;9.90;;;10.70;99.90;;;;;;4016727;29;20387;-83
2022/12/31 05:17:22;;;;;;;12.90;10.50;;;10.70;99.90;;;;;;4028093;29;20048;-83
2022/12/31 05:19:42;;;;;;;10.63;9.63;;;10.60;99.90;;;;;;4015511;29;20086;-83
2022/12/31 05:24:40;;;;;;;9.88;8.75;;;10.70;99.90;;;;;;4015348;29;20062;-84
2022/12/31 05:27:01;;;;;;;9.82;8.98;;;10.60;99.90;;;;;;4016465;29;20364;-83
2022/12/31 05:29:20;;;;;;;8.70;8.15;;;10.70;99.90;;;;;;4015848;29;20052;-84
2022/12/31 05:31:40;;;;;;;8.00;7.25;;;10.70;99.90;;;;;;4016401;29;20049;-84
2022/12/31 05:34:01;;;;;;;8.65;8.25;;;10.70;99.90;;;;;;4015385;29;20120;-84
2022/12/31 05:36:20;;;;;;;8.15;7.40;;;10.70;99.90;;;;;;4016272;29;20064;-83
2022/12/31 05:38:41;;;;;;;7.60;7.10;;;10.70;99.90;;;;;;4015874;29;20053;-83
2022/12/31 05:41:03;;;;;;;8.55;7.47;;;10.70;99.90;;;;;;4004707;29;20269;-84
2022/12/31 05:43:23;;;;;;;13.23;7.80;;;10.70;99.90;;;;;;4017108;29;20387;-83
2022/12/31 05:45:43;;;;;;;8.13;7.47;;;10.70;99.90;;;;;;4015504;29;20101;-84
2022/12/31 05:48:03;;;;;;;9.63;8.77;;;10.70;99.90;;;;;;4015910;29;20400;-83
2022/12/31 05:50:24;;;;;;;12.82;9.77;;;10.70;99.90;;;;;;4016127;29;20094;-83
2022/12/31 05:52:44;;;;;;;11.50;9.77;;;10.70;99.90;;;;;;4015419;29;20095;-83
2022/12/31 05:55:07;;;;;;;15.77;10.65;;;10.70;99.90;;;;;;4027666;29;20048;-83
2022/12/31 05:57:27;;;;;;;16.38;10.32;;;10.70;99.90;;;;;;4016165;29;20049;-83
2022/12/31 05:59:48;;;;;;;16.15;9.93;;;10.70;99.90;;;;;;4014898;29;20114;-83
2022/12/31 06:02:08;;;;;;;10.32;9.35;;;10.70;99.90;;;;;;4016030;29;20367;-84
2022/12/31 06:04:28;;;;;;;11.65;10.60;;;10.70;99.90;;;;;;4016130;29;20129;-83
2022/12/31 06:06:48;;;;;;;10.82;9.88;;;10.70;99.90;;;;;;4015239;29;20052;-83
2022/12/31 06:09:08;;;;;;;11.15;9.80;;;10.70;99.90;;;;;;4014666;29;20077;-84
2022/12/31 06:11:28;;;;;;;11.23;10.30;;;10.70;99.90;;;;;;4014179;29;20061;-84
2022/12/31 06:13:47;;;;;;;11.10;8.75;;;10.70;99.90;;;;;;4005938;29;20045;-83
2022/12/31 06:16:08;;;;;;;14.32;11.60;;;10.70;99.90;;;;;;4017051;29;20237;-83
2022/12/31 06:18:29;;;;;;;15.55;10.30;;;10.70;99.90;;;;;;4014996;29;20086;-83
2022/12/31 06:20:48;;;;;;;24.08;13.88;;;10.70;99.90;;;;;;4018068;29;20053;-83
2022/12/31 06:23:08;;;;;;;12.57;10.93;;;10.70;99.90;;;;;;4014717;29;20052;-83
2022/12/31 06:25:28;;;;;;;11.00;10.18;;;10.70;99.90;;;;;;4015195;29;20300;-83
2022/12/31 06:27:48;;;;;;;11.18;10.32;;;10.80;99.90;;;;;;4014179;29;20059;-83
2022/12/31 06:30:10;;;;;;;10.07;8.75;;;10.70;99.90;;;;;;4019543;29;20056;-83
2022/12/31 06:32:29;;;;;;;15.40;10.25;;;10.70;99.90;;;;;;4014374;29;20061;-83
2022/12/31 06:34:49;;;;;;;10.23;9.40;;;10.70;99.90;;;;;;4015635;29;20053;-83
2022/12/31 06:37:09;;;;;;;13.82;9.32;;;10.70;99.90;;;;;;4015404;29;20089;-83
2022/12/31 06:39:29;;;;;;;10.25;9.23;;;10.70;99.90;;;;;;4026061;29;20089;-83
2022/12/31 06:41:50;;;;;;;12.43;10.05;;;10.70;99.90;;;;;;4015321;29;20117;-83
2022/12/31 06:44:10;;;;;;;10.27;9.60;;;10.60;99.90;;;;;;4016118;29;20117;-83
2022/12/31 06:46:30;;;;;;;13.68;10.13;;;10.70;99.90;;;;;;4005835;29;20122;-83
2022/12/31 06:48:50;;;;;;;11.52;10.55;;;10.70;99.90;;;;;;4015010;29;20066;-83
2022/12/31 06:51:13;;;;;;;10.73;9.85;;;10.70;99.90;;;;;;4015479;29;20083;-83
2022/12/31 06:53:37;;;;;;;10.85;10.00;;;10.70;99.90;;;;;;4026830;29;20048;-83
2022/12/31 06:56:03;;;;;;;11.55;10.40;;;10.70;99.90;;;;;;4015167;29;20049;-83
2022/12/31 06:58:23;;;;;;;9.65;8.52;;;10.70;99.90;;;;;;4012408;29;20057;-83
2022/12/31 07:00:59;;;;;;;12.73;11.43;;;10.70;99.90;;;;;;4014928;29;20120;-83
2022/12/31 07:03:37;;;;;;;12.05;11.23;;;10.70;99.90;;;;;;4025792;29;20113;-83
2022/12/31 07:06:09;;;;;;;12.05;10.80;;;10.70;99.90;;;;;;4014840;29;20078;-84
2022/12/31 07:08:50;;;;;;;10.98;9.93;;;10.70;99.90;;;;;;4014988;29;20049;-82
2022/12/31 07:11:23;;;;;;;13.70;12.57;;;10.70;99.90;;;;;;4014388;29;20044;-82
2022/12/31 07:13:54;;;;;;;14.55;12.52;;;10.70;99.90;;;;;;4015199;29;20061;-82
2022/12/31 07:16:26;;;;;;;14.10;12.30;;;10.70;99.90;;;;;;4014193;29;20071;-82
2022/12/31 07:19:18;;;;;;;13.98;12.57;;;10.70;99.90;;;;;;4027160;29;20076;-82
2022/12/31 07:21:40;;;;;;;16.38;14.70;;;10.70;99.90;;;;;;3953436;30;20071;-82
2022/12/31 07:24:01;;;;;;;15.25;13.88;;;10.70;99.90;;;;;;3960506;30;20070;-82
2022/12/31 07:26:53;;;;;;;13.65;12.52;;;10.70;99.90;;;;;;3966757;30;20269;-84
2022/12/31 07:29:19;;;;;;;13.55;12.35;;;10.70;99.90;;;;;;3958635;30;20255;-84
2022/12/31 07:31:57;;;;;;;18.25;16.52;;;10.70;99.90;;;;;;3964572;30;20063;-84
2022/12/31 07:34:36;;;;;;;18.23;16.35;;;10.70;99.90;;;;;;3962434;29;20054;-84
2022/12/31 07:37:12;;;;;;;12.88;12.07;;;10.70;99.90;;;;;;3961709;30;20385;-84
2022/12/31 07:40:04;;;;;;;12.05;10.88;;;10.60;99.90;;;;;;3958199;30;20054;-84
2022/12/31 07:42:39;;;;;;;11.05;10.15;;;10.70;99.90;;;;;;3964644;29;20096;-84
2022/12/31 07:45:19;;;;;;;11.10;10.10;;;10.60;99.90;;;;;;3962851;30;20049;-84
2022/12/31 07:47:39;;;;;;;12.82;11.50;;;10.70;99.90;;;;;;3963893;30;20058;-84
2022/12/31 07:49:59;;;;;;;11.50;10.75;;;10.60;99.90;;;;;;3962051;30;20250;-84
2022/12/31 07:52:20;;;;;;;11.63;10.73;;;10.70;99.90;;;;;;3952463;30;20050;-84
2022/12/31 07:54:40;;;;;;;11.80;10.80;;;10.70;99.90;;;;;;3961801;30;20065;-84
2022/12/31 07:57:00;;;;;;;12.27;11.27;;;10.70;99.90;;;;;;3972723;29;20049;-84
2022/12/31 08:00:14;;;;;;;11.95;10.82;;;10.70;99.90;;;;;;4026304;29;20055;-84
2022/12/31 08:02:49;;;;;;;9.93;9.23;;;10.70;99.90;;;;;;3970393;29;20056;-84
2022/12/31 08:05:27;;;;;;;10.27;9.25;;;10.80;99.90;;;;;;3982951;29;20204;-84
2022/12/31 08:07:54;;;;;;;12.10;11.38;;;10.80;99.90;;;;;;3983029;29;20074;-84
2022/12/31 08:10:16;;;;;;;10.15;9.50;;;10.80;99.90;;;;;;3983003;29;20053;-84
2022/12/31 08:12:40;;;;;;;15.82;13.23;;;10.80;99.90;;;;;;3981898;29;20265;-84
2022/12/31 08:15:00;;;;;;;13.63;12.80;;;10.80;99.90;;;;;;3983061;29;20085;-84
2022/12/31 08:17:20;;;;;;;10.00;9.13;;;10.80;99.90;;;;;;3970247;29;20109;-84
2022/12/31 08:19:40;;;;;;;19.33;9.77;;;10.80;99.90;;;;;;3982859;29;20375;-84
2022/12/31 08:22:06;;;;;;;9.45;8.57;;;10.80;99.90;;;;;;3982986;29;20087;-84
2022/12/31 08:24:34;;;;;;;10.13;7.18;;;10.80;99.90;;;;;;3982918;29;20054;-84
2022/12/31 08:27:18;;;;;;;24.05;21.85;;;10.80;99.90;;;;;;3982774;29;20108;-84
2022/12/31 08:29:48;;;;;;;33.75;26.58;;;10.80;99.90;;;;;;3982782;29;20143;-84
2022/12/31 08:32:30;;;;;;;60.03;46.55;;;10.80;99.90;;;;;;3982868;29;20234;-84
2022/12/31 08:35:15;;;;;;;9.38;8.98;;;10.80;99.90;;;;;;4013847;29;20045;-84
2022/12/31 08:37:37;;;;;;;8.35;7.60;;;10.80;99.90;;;;;;4013929;29;20053;-84
2022/12/31 08:40:25;;;;;;;8.73;8.25;;;10.90;99.90;;;;;;4014375;29;20053;-84
2022/12/31 08:42:53;;;;;;;14.50;13.20;;;10.90;99.90;;;;;;4014209;29;20056;-84
2022/12/31 08:45:22;;;;;;;16.70;14.95;;;10.90;99.90;;;;;;4013958;29;20265;-84
2022/12/31 08:48:00;;;;;;;14.45;13.10;;;10.90;99.90;;;;;;4014388;29;20060;-84
2022/12/31 08:50:20;;;;;;;8.55;8.23;;;10.90;99.90;;;;;;4014784;29;20057;-84
2022/12/31 08:52:40;;;;;;;10.32;9.65;;;11.00;99.90;;;;;;4016547;29;20080;-84
2022/12/31 08:55:01;;;;;;;10.85;10.10;;;11.00;99.90;;;;;;4022129;29;20322;-84
2022/12/31 08:57:53;;;;;;;10.52;9.77;;;11.00;99.90;;;;;;4015864;29;20241;-84
2022/12/31 09:00:16;;;;;;;16.73;15.15;;;11.10;99.90;;;;;;4015978;29;20375;-84
2022/12/31 09:02:40;;;;;;;;;;;11.10;99.90;;;;;;4016444;29;20359;-87
2022/12/31 09:05:32;;;;;;;16.95;15.52;;;11.10;99.90;;;;;;4015867;29;19958;-84
2022/12/31 09:08:08;;;;;;;19.75;18.08;;;11.10;99.90;;;;;;4015639;29;20391;-84
2022/12/31 09:11:06;;;;;;;13.18;12.23;;;11.10;99.90;;;;;;4006277;29;20312;-83
2022/12/31 09:13:52;;;;;;;15.27;13.80;;;11.20;99.90;;;;;;4016192;29;20071;-83
2022/12/31 09:16:36;;;;;;;18.13;16.23;;;11.20;99.90;;;;;;3994035;29;20053;-83
2022/12/31 09:18:56;;;;;;;17.50;15.88;;;11.20;99.90;;;;;;4006885;29;20062;-83
2022/12/31 09:21:16;;;;;;;17.02;15.32;;;11.20;99.90;;;;;;4016397;29;20367;-83
2022/12/31 09:23:37;;;;;;;21.50;18.50;;;11.20;99.90;;;;;;4009360;29;20064;-83
2022/12/31 09:26:20;;;;;;;15.68;14.18;;;11.20;99.90;;;;;;4016367;29;20106;-83
2022/12/31 09:29:24;;;;;;;12.88;11.73;;;11.20;99.90;;;;;;4015969;29;20049;-83
2022/12/31 09:32:02;;;;;;;;;;;11.30;99.90;;;;;;3954108;30;20067;-83
2022/12/31 09:34:52;;;;;;;8.30;7.72;;;11.20;99.90;;;;;;3962135;30;19980;-83
2022/12/31 09:37:20;;;;;;;13.75;10.00;;;11.30;99.90;;;;;;4008026;29;20308;-83
2022/12/31 09:39:44;;;;;;;10.40;9.48;;;11.30;99.90;;;;;;4015970;29;20233;-83
2022/12/31 09:42:41;;;;;;;13.70;11.98;;;11.30;99.90;;;;;;4028489;29;20116;-83
2022/12/31 09:45:11;;;;;;;9.55;8.88;;;11.30;99.90;;;;;;4016120;29;20063;-83
2022/12/31 09:47:54;;;;;;;9.45;8.88;;;11.30;99.90;;;;;;4014582;29;20081;-83
2022/12/31 09:50:45;;;;;;;8.77;8.25;;;11.40;99.90;;;;;;3994741;29;20098;-83
2022/12/31 09:53:28;;;;;;;9.63;9.02;;;11.40;99.90;;;;;;4016169;29;20059;-83
2022/12/31 09:56:01;;;;;;;7.18;6.88;;;11.50;99.90;;;;;;4014425;29;20078;-83
2022/12/31 09:58:26;;;;;;;7.50;6.95;;;11.50;99.90;;;;;;4027739;29;20088;-83
2022/12/31 10:01:00;;;;;;;9.48;9.00;;;11.50;99.90;;;;;;4027545;29;20041;-83
2022/12/31 10:03:48;;;;;;;14.70;13.32;;;11.50;99.90;;;;;;4016000;29;20081;-83
2022/12/31 10:06:21;;;;;;;12.60;11.80;;;11.60;99.90;;;;;;4026121;29;20089;-83
2022/12/31 10:09:10;;;;;;;11.23;10.45;;;11.60;99.90;;;;;;4014765;29;20075;-83
2022/12/31 10:11:51;;;;;;;13.02;11.93;;;11.60;99.90;;;;;;4026652;29;20084;-83
2022/12/31 10:14:35;;;;;;;7.60;7.00;;;11.60;99.90;;;;;;4004998;29;20052;-83
2022/12/31 10:17:19;;;;;;;9.90;8.05;;;11.60;99.90;;;;;;4032841;29;20094;-83
2022/12/31 10:20:17;;;;;;;8.15;7.63;;;11.60;99.90;;;;;;4026194;29;20047;-83
2022/12/31 10:23:01;;;;;;;7.68;7.28;;;11.60;99.90;;;;;;4009507;29;20069;-83
2022/12/31 10:25:39;;;;;;;9.68;8.82;;;11.60;99.90;;;;;;4015455;29;20270;-83
2022/12/31 10:28:13;;;;;;;9.10;8.40;;;11.60;99.90;;;;;;4015794;29;20050;-83
2022/12/31 10:30:39;;;;;;;15.27;13.40;;;11.70;99.90;;;;;;4015554;29;20060;-83
2022/12/31 10:33:17;;;;;;;14.05;10.30;;;11.70;99.90;;;;;;4015531;29;20089;-83
2022/12/31 10:35:46;;;;;;;20.55;9.38;;;11.70;99.90;;;;;;4027501;29;20125;-83
2022/12/31 10:38:25;;;;;;;24.30;15.80;;;11.80;99.90;;;;;;4014405;29;20158;-83
2022/12/31 10:41:09;;;;;;;25.20;11.23;;;11.80;99.90;;;;;;4015476;29;20044;-83
2022/12/31 10:44:06;;;;;;;15.45;10.75;;;11.80;99.90;;;;;;4026176;29;20086;-83
2022/12/31 10:46:48;;;;;;;20.70;13.88;;;11.90;99.90;;;;;;4006725;29;20236;-83
2022/12/31 10:49:27;;;;;;;63.03;38.10;;;11.90;99.90;;;;;;4015413;29;20053;-83
2022/12/31 10:52:09;;;;;;;44.92;31.60;;;11.90;99.90;;;;;;4014604;29;20155;-83
2022/12/31 10:54:54;;;;;;;42.95;25.80;;;12.00;99.90;;;;;;4014312;29;20048;-83
2022/12/31 10:57:48;;;;;;;27.20;19.88;;;12.10;99.90;;;;;;4005881;29;20124;-83
2022/12/31 11:00:22;;;;;;;37.45;27.10;;;12.10;99.90;;;;;;4027444;29;20049;-83
2022/12/31 11:03:14;;;;;;;29.42;18.55;;;12.10;99.90;;;;;;4025927;29;20048;-83
2022/12/31 11:05:43;;;;;;;39.70;24.40;;;12.10;99.90;;;;;;3991825;29;20053;-83
2022/12/31 11:08:27;;;;;;;22.40;16.30;;;12.10;99.90;;;;;;4014646;29;20417;-83
2022/12/31 11:11:26;;;;;;;37.30;27.20;;;12.10;99.90;;;;;;4002303;29;20084;-83
2022/12/31 11:14:01;;;;;;;22.92;14.15;;;12.10;99.90;;;;;;4014103;29;20056;-83
2022/12/31 11:17:03;;;;;;;22.50;14.00;;;12.10;99.90;;;;;;4008800;29;20089;-83
2022/12/31 11:19:51;;;;;;;23.80;12.05;;;12.10;99.90;;;;;;4003603;29;20041;-83
2022/12/31 11:22:41;;;;;;;19.65;11.73;;;12.20;99.90;;;;;;4013984;29;20084;-83
2022/12/31 11:25:13;;;;;;;22.73;12.55;;;12.30;99.90;;;;;;4012789;29;20069;-83
2022/12/31 11:27:52;;;;;;;23.77;16.67;;;12.30;99.90;;;;;;4027236;29;20064;-84
2022/12/31 11:30:24;;;;;;;27.67;20.35;;;12.30;99.90;;;;;;4012596;29;20053;-88
2022/12/31 11:33:10;;;;;;;36.20;20.95;;;12.50;99.90;;;;;;4014472;29;20052;-88
2022/12/31 11:35:57;;;;;;;24.10;16.58;;;12.80;99.90;;;;;;4000574;29;20154;-86
2022/12/31 11:38:27;;;;;;;13.02;11.20;;;12.60;99.90;;;;;;4014109;29;20049;-86
2022/12/31 11:41:25;;;;;;;17.88;13.07;;;12.60;99.90;;;;;;4014418;29;20080;-86
2022/12/31 11:43:51;;;;;;;22.15;13.68;;;12.70;99.90;;;;;;4014963;29;20052;-86
2022/12/31 11:46:46;;;;;;;16.08;11.25;;;12.60;99.90;;;;;;4013527;29;20057;-87
2022/12/31 11:49:28;;;;;;;15.23;10.40;;;12.70;99.90;;;;;;4006745;29;20106;-87
2022/12/31 11:52:11;;;;;;;16.48;10.80;;;12.90;99.90;;;;;;4014849;29;20060;-86
2022/12/31 11:54:40;;;;;;;15.35;12.82;;;13.20;99.90;;;;;;4014066;29;20296;-86
2022/12/31 11:57:19;;;;;;;15.38;10.85;;;13.10;99.90;;;;;;4013423;29;20064;-87
2022/12/31 11:59:39;;;;;;;17.65;11.52;;;12.90;99.90;;;;;;4003519;29;20106;-87
2022/12/31 12:02:23;;;;;;;12.35;8.88;;;12.80;99.90;;;;;;4013633;29;20140;-86
2022/12/31 12:04:47;;;;;;;15.30;10.40;;;12.70;99.90;;;;;;4012042;29;20137;-86
2022/12/31 12:07:15;;;;;;;18.63;13.18;;;12.80;99.90;;;;;;4013076;29;20062;-87
2022/12/31 12:09:35;;;;;;;12.40;10.23;;;12.90;99.90;;;;;;4025692;29;20086;-86
2022/12/31 12:12:04;;;;;;;15.75;11.63;;;12.80;99.90;;;;;;4014604;29;20123;-87
2022/12/31 12:14:37;;;;;;;15.23;11.88;;;12.80;99.90;;;;;;4013670;29;20045;-87
2022/12/31 12:16:58;;;;;;;13.55;11.13;;;12.70;99.90;;;;;;4013012;29;20044;-86
2022/12/31 12:20:13;;;;;;;23.30;14.50;;;12.70;99.90;;;;;;4007890;29;20093;-86
2022/12/31 12:22:33;;;;;;;23.77;9.77;;;12.80;99.90;;;;;;3978933;29;20462;-86
2022/12/31 12:25:02;;;;;;;16.45;11.57;;;12.70;99.90;;;;;;4015011;29;20057;-86
2022/12/31 12:27:27;;;;;;;20.33;10.88;;;12.90;99.90;;;;;;4016473;29;20068;-87
2022/12/31 12:29:47;;;;;;;14.32;11.60;;;12.80;99.90;;;;;;4017105;29;20196;-87
2022/12/31 12:32:19;;;;;;;14.63;10.75;;;12.80;99.90;;;;;;4019173;29;20051;-84
2022/12/31 12:34:40;;;;;;;11.82;10.23;;;12.80;99.90;;;;;;4014672;29;20118;-84
2022/12/31 12:37:23;;;;;;;16.83;10.50;;;12.80;99.90;;;;;;4015782;29;20088;-84
2022/12/31 12:39:58;;;;;;;12.52;9.82;;;12.80;99.90;;;;;;4029030;29;20149;-84
2022/12/31 12:42:18;;;;;;;18.50;9.48;;;12.80;99.90;;;;;;4028660;29;20124;-84
2022/12/31 12:44:39;;;;;;;16.48;9.10;;;12.80;99.90;;;;;;4015923;29;20363;-84
2022/12/31 12:47:02;;;;;;;11.68;9.45;;;12.80;99.90;;;;;;4016483;29;20248;-84
2022/12/31 12:49:23;;;;;;;;;;;13.00;99.90;;;;;;4028877;29;20070;-84
2022/12/31 12:51:56;;;;;;;16.00;10.90;;;13.00;99.90;;;;;;4015631;29;19976;-84
2022/12/31 12:54:22;;;;;;;;;;;13.20;99.90;;;;;;4016293;29;20053;-84